AirNav   Duncan Aviation - Near you to keep you flying
 
 991 users online  

NA71 M Bodvig Airstrip
Tappen, North Dakota, USA

GOING TO TAPPEN?


FAA INFORMATION EFFECTIVE 03 NOVEMBER 2022

Location

FAA Identifier: NA71
Lat/Long: 46-59-44.9530N 099-40-16.3840W
46-59.749217N 099-40.273067W
46.9958203,-99.6712178
(estimated)
Elevation: 1750 ft. / 533 m (estimated)
Variation: 09E (1985)
From city: 8 miles N of TAPPEN, ND
Time zone: UTC -6 (UTC -5 during Daylight Saving Time)
Zip code: 58487

Airport Operations

Airport use: Private use. Permission required prior to landing
Activation date: 07/1982
Control tower: no
ARTCC: MINNEAPOLIS CENTER
FSS: GRAND FORKS FLIGHT SERVICE STATION
Attendance: UNATNDD
Wind indicator: yes
Segmented circle: no

Airport Services

Runway Information

Runway 8/26

Dimensions: 2640 x 40 ft. / 805 x 12 m
Surface: turf
RUNWAY 8  RUNWAY 26
Traffic pattern: leftleft
Obstructions: nonetrees

Runway 12/30

Dimensions: 2100 x 40 ft. / 640 x 12 m
Surface: turf
RUNWAY 12  RUNWAY 30
Traffic pattern: leftleft
Obstructions: road, 50 ft. from runwaynone

Runway 17/35

Dimensions: 2000 x 40 ft. / 610 x 12 m
Surface: turf
RUNWAY 17  RUNWAY 35
Traffic pattern: leftleft
Obstructions: treesnone

Airport Ownership and Management from official FAA records

Ownership: Privately-owned
Owner: MARVIN BODVIG
PO BOX 65
TAPPEN, ND 58487
Phone 701-327-4293
Manager: MARVIN BODVIG
PO BOX 65
TAPPEN, ND 58487
Phone 701-327-4293

Airport Operational Statistics

Aircraft based on the field: 1
Single engine airplanes: 1
    

Additional Remarks

PVT AIRSTRIP LOCATED 3000' FM THR, 1200' RIGHT OF CNTRLN
FOR CD CTC MINNEAPOLIS ARTCC AT 651-463-5588.

Instrument Procedures

There are no published instrument procedures at NA71.

Some nearby airports with instrument procedures:

46D - Carrington Municipal Airport (35 nm NE)
KJMS - Jamestown Regional Airport (41 nm E)
KBIS - Bismarck Municipal Airport (46 nm W)
5H4 - Harvey Municipal Airport (49 nm N)
Y19 - Mandan Regional Airport/Lawler Field (52 nm W)
 
Loc | Ops | Rwys | IFR | FBO | Links
Com | Nav | Svcs | Stats | Notes

Bismarck Aero Center
AirBoss

 
Area around NA71 (M Bodvig Airstrip)
 
Road maps at: MapQuest Bing Google
 
Aerial photo
No photo
 
Sectional chart

 
Airport distance calculator
Flying to M Bodvig Airstrip? Find the distance to fly.

From to NA71

Sunrise and sunset
Times for 26-Nov-2022
 Local
(UTC-6)
 Zulu
(UTC)
Morning civil twilight07:2413:24
Sunrise07:5813:58
Sunset16:5422:54
Evening civil twilight17:2823:28

Current date and time
Zulu (UTC)  26-Nov-2022 15:23:13
Local (UTC-6)  26-Nov-2022 09:23:13
 
METAR
K46D 
35nm NE 
261455Z AUTO 31016G21KT 10SM CLR 02/00 A2975 RMK AO2
KJMS 
41nm E 
261456Z AUTO 32012KT 10SM CLR 03/M01 A2971 RMK AO2 PRESRR SLP073 T00281011 53023
KBIS 
46nm W 
261452Z 32012KT 10SM CLR 03/M01 A2982 RMK AO2 SLP111 T00331011 53028
K5H4 
49nm N 
261455Z AUTO 31017G23KT 10SM UP CLR 02/M02 A2978 RMK AO2
TAF
KJMS 
41nm E 
261125Z 2612/2712 VRB06KT P6SM SCT250 FM261500 32013G24KT P6SM BKN250 FM261800 33016G29KT P6SM OVC200 FM262300 32012G20KT P6SM BKN200 FM270800 VRB06KT P6SM FEW250
KBIS 
46nm W 
261359Z 2614/2712 32010KT P6SM BKN200 FM261800 32012G24KT P6SM BKN200 FM262300 31009KT P6SM BKN200
NOTAMs
Click for the latest NOTAMs
NOTAMs are issued by the DoD/FAA and will open in a separate window not controlled by AirNav.

 

 
 

Would you like to see your business listed on this page?

 If your business provides an interesting product or service to pilots, flight crews, aircraft, or users of the M Bodvig Airstrip, you should consider listing it here.  To start the listing process, click on the button below
 
Add a business
 

Other Pages about M Bodvig Airstrip

Update a link
 
Copyright © AirNav, LLC. All rights reserved. Privacy Policy  Contact